Time;durP1;ratioP1;P1;durP2;ratioP2;P2;SDS_P1;SDS_P2;PMS_P1;PMS_P2;Temp;Humidity;BMP_temperature;BMP_pressure;BME280_temperature;BME280_humidity;BME280_pressure;Samples;Min_cycle;Max_cycle;Signal;HPM_P1;HPM_P2
2023/05/23 00:01:24;;;;;;;25.48;19.85;;;;;;;;;;8301645;28;20068;-61
2023/05/23 00:05:25;;;;;;;31.23;20.75;;;;;;;;;;8302196;28;20039;-61
2023/05/23 00:09:25;;;;;;;26.48;20.25;;;;;;;;;;8298244;28;20530;-61
2023/05/23 00:13:26;;;;;;;26.08;20.95;;;;;;;;;;8302564;28;20029;-61
2023/05/23 00:17:26;;;;;;;29.80;21.13;;;;;;;;;;8301381;28;20055;-61
2023/05/23 00:21:29;;;;;;;26.60;20.75;;;;;;;;;;8301774;28;20029;-61
2023/05/23 00:25:32;;;;;;;24.25;19.95;;;;;;;;;;8301350;28;20914;-61
2023/05/23 00:29:33;;;;;;;24.42;20.60;;;;;;;;;;8299492;28;20842;-61
2023/05/23 00:33:33;;;;;;;25.95;21.13;;;;;;;;;;8299571;28;20063;-61
2023/05/23 00:37:33;;;;;;;28.08;22.58;;;;;;;;;;8302258;28;20118;-61
2023/05/23 00:41:34;;;;;;;28.42;22.42;;;;;;;;;;8301180;28;20568;-61
2023/05/23 00:45:35;;;;;;;33.35;22.15;;;;;;;;;;8300646;28;20025;-61
2023/05/23 00:49:35;;;;;;;28.08;22.08;;;;;;;;;;8301539;28;20025;-62
2023/05/23 00:53:36;;;;;;;26.38;21.95;;;;;;;;;;8303153;28;20033;-61
2023/05/23 00:57:40;;;;;;;24.33;20.90;;;;;;;;;;8299627;28;20029;-61
2023/05/23 01:01:41;;;;;;;26.58;21.17;;;;;;;;;;8302343;28;20766;-61
2023/05/23 01:05:41;;;;;;;26.90;23.83;;;;;;;;;;8300582;28;20476;-61
2023/05/23 01:09:41;;;;;;;28.83;22.00;;;;;;;;;;8300358;28;20065;-61
2023/05/23 01:13:49;;;;;;;25.77;21.75;;;;;;;;;;8298697;28;20664;-61
2023/05/23 01:18:07;;;;;;;25.95;22.58;;;;;;;;;;8297283;28;20103;-61
2023/05/23 01:22:11;;;;;;;29.92;21.83;;;;;;;;;;8298985;28;20040;-61
2023/05/23 01:26:11;;;;;;;23.17;20.75;;;;;;;;;;8301372;28;20022;-61
2023/05/23 01:30:12;;;;;;;24.50;20.10;;;;;;;;;;8299505;28;20025;-61
2023/05/23 01:34:12;;;;;;;21.70;19.35;;;;;;;;;;8296316;28;20501;-61
2023/05/23 01:38:13;;;;;;;25.88;20.15;;;;;;;;;;8299464;28;20025;-61
2023/05/23 01:42:13;;;;;;;21.60;18.13;;;;;;;;;;8299726;28;20083;-61
2023/05/23 01:46:15;;;;;;;23.67;19.88;;;;;;;;;;8298563;28;20144;-61
2023/05/23 01:50:15;;;;;;;23.67;19.58;;;;;;;;;;8297203;28;20017;-61
2023/05/23 01:54:18;;;;;;;23.35;19.02;;;;;;;;;;8300515;28;20025;-61
2023/05/23 01:58:18;;;;;;;21.87;18.90;;;;;;;;;;8299834;28;20056;-61
2023/05/23 02:02:19;;;;;;;23.17;18.73;;;;;;;;;;8296771;28;20036;-61
2023/05/23 02:06:19;;;;;;;24.42;19.55;;;;;;;;;;8298565;28;20024;-61
2023/05/23 02:10:19;;;;;;;21.10;17.52;;;;;;;;;;8296717;28;20471;-61
2023/05/23 02:14:20;;;;;;;21.10;17.38;;;;;;;;;;8299377;28;20017;-61
2023/05/23 02:18:20;;;;;;;19.15;17.10;;;;;;;;;;8298115;28;20041;-61
2023/05/23 02:22:24;;;;;;;21.02;17.95;;;;;;;;;;8299450;28;20649;-61
2023/05/23 02:26:26;;;;;;;22.23;17.75;;;;;;;;;;8298503;28;21047;-61
2023/05/23 02:30:26;;;;;;;19.85;17.38;;;;;;;;;;8298707;28;20033;-61
2023/05/23 02:34:26;;;;;;;24.83;18.33;;;;;;;;;;8296993;28;20032;-61
2023/05/23 02:38:26;;;;;;;22.20;18.58;;;;;;;;;;8296775;28;20029;-61
2023/05/23 02:42:27;;;;;;;21.33;18.65;;;;;;;;;;8296764;28;20036;-61
2023/05/23 02:46:27;;;;;;;23.73;17.33;;;;;;;;;;8297345;28;20108;-61
2023/05/23 02:50:27;;;;;;;20.83;17.35;;;;;;;;;;8297461;28;20125;-61
2023/05/23 02:54:27;;;;;;;19.48;16.85;;;;;;;;;;8307497;28;20021;-61
2023/05/23 02:58:28;;;;;;;19.80;17.65;;;;;;;;;;8297525;28;20533;-61
2023/05/23 03:02:28;;;;;;;20.70;17.65;;;;;;;;;;8303267;28;20033;-61
2023/05/23 03:06:31;;;;;;;17.92;15.90;;;;;;;;;;8304543;28;20033;-61
2023/05/23 03:10:31;;;;;;;18.65;16.52;;;;;;;;;;8304050;28;20127;-61
2023/05/23 03:14:31;;;;;;;20.45;15.68;;;;;;;;;;8301641;28;21013;-61
2023/05/23 03:18:31;;;;;;;18.03;16.10;;;;;;;;;;8303871;28;20028;-61
2023/05/23 03:22:31;;;;;;;19.27;15.30;;;;;;;;;;8303070;28;20267;-61
2023/05/23 03:26:32;;;;;;;20.50;15.40;;;;;;;;;;8304749;28;20072;-60
2023/05/23 03:30:32;;;;;;;19.55;15.35;;;;;;;;;;8300618;28;20159;-60
2023/05/23 03:34:32;;;;;;;18.60;15.40;;;;;;;;;;8302314;28;20033;-60
2023/05/23 03:38:33;;;;;;;15.95;14.25;;;;;;;;;;8304158;28;20017;-61
2023/05/23 03:42:33;;;;;;;19.53;14.73;;;;;;;;;;8303435;28;20402;-61
2023/05/23 03:46:33;;;;;;;16.17;13.98;;;;;;;;;;8303989;28;20458;-61
2023/05/23 03:50:33;;;;;;;20.13;14.35;;;;;;;;;;8302183;28;20022;-61
2023/05/23 03:54:33;;;;;;;18.48;15.48;;;;;;;;;;8300377;28;20021;-61
2023/05/23 03:58:34;;;;;;;15.30;13.70;;;;;;;;;;8303140;28;20020;-61
2023/05/23 04:02:34;;;;;;;14.95;13.40;;;;;;;;;;8303148;28;20107;-61
2023/05/23 04:06:34;;;;;;;19.33;11.88;;;;;;;;;;8301786;28;20021;-61
2023/05/23 04:10:34;;;;;;;14.10;11.25;;;;;;;;;;8300484;28;20033;-61
2023/05/23 04:14:34;;;;;;;15.85;12.07;;;;;;;;;;8302754;28;20036;-62
2023/05/23 04:18:37;;;;;;;12.90;10.90;;;;;;;;;;8304067;28;20029;-61
2023/05/23 04:22:38;;;;;;;16.70;11.20;;;;;;;;;;8301115;28;20021;-61
2023/05/23 04:26:38;;;;;;;13.55;9.90;;;;;;;;;;8301336;28;20085;-61
2023/05/23 04:30:38;;;;;;;10.40;8.73;;;;;;;;;;8302431;28;20806;-61
2023/05/23 04:34:40;;;;;;;9.57;8.45;;;;;;;;;;8303041;28;20027;-61
2023/05/23 04:38:40;;;;;;;10.50;8.65;;;;;;;;;;8300518;28;20102;-61
2023/05/23 04:42:43;;;;;;;10.25;7.93;;;;;;;;;;8299292;28;20756;-61
2023/05/23 04:46:44;;;;;;;11.05;8.60;;;;;;;;;;8299377;28;20033;-62
2023/05/23 04:50:46;;;;;;;8.95;7.43;;;;;;;;;;8302698;28;20032;-61
2023/05/23 04:54:47;;;;;;;8.07;7.10;;;;;;;;;;8301982;28;20508;-61
2023/05/23 04:58:48;;;;;;;9.52;7.00;;;;;;;;;;8298769;28;20121;-61
2023/05/23 05:02:48;;;;;;;8.02;7.13;;;;;;;;;;8300369;28;20072;-61
2023/05/23 05:06:48;;;;;;;8.82;6.57;;;;;;;;;;8297974;28;20229;-61
2023/05/23 05:10:48;;;;;;;8.68;7.03;;;;;;;;;;8295519;28;20049;-61
2023/05/23 05:14:48;;;;;;;6.78;6.18;;;;;;;;;;8296944;28;20064;-61
2023/05/23 05:18:49;;;;;;;10.63;6.93;;;;;;;;;;8299321;28;20544;-61
2023/05/23 05:22:54;;;;;;;7.53;6.47;;;;;;;;;;8295927;28;20866;-61
2023/05/23 05:26:54;;;;;;;9.38;6.82;;;;;;;;;;8298349;28;20712;-61
2023/05/23 05:30:55;;;;;;;8.63;6.55;;;;;;;;;;8297250;28;20387;-61
2023/05/23 05:34:55;;;;;;;8.45;7.00;;;;;;;;;;8293935;28;20045;-61
2023/05/23 05:38:56;;;;;;;8.77;7.43;;;;;;;;;;8289636;28;20024;-61
2023/05/23 05:42:56;;;;;;;10.63;8.65;;;;;;;;;;8289750;28;20022;-62
2023/05/23 05:46:56;;;;;;;13.27;9.75;;;;;;;;;;8290794;28;20059;-61
2023/05/23 05:50:56;;;;;;;12.77;9.45;;;;;;;;;;8289409;28;20056;-61
2023/05/23 05:54:56;;;;;;;12.45;11.15;;;;;;;;;;8290648;28;20449;-61
2023/05/23 05:58:57;;;;;;;15.07;11.48;;;;;;;;;;8286554;28;20029;-60
2023/05/23 06:02:57;;;;;;;13.77;11.23;;;;;;;;;;8284420;28;20152;-61
2023/05/23 06:06:57;;;;;;;15.35;11.77;;;;;;;;;;8291682;28;20515;-61
2023/05/23 06:10:57;;;;;;;14.70;11.48;;;;;;;;;;8289826;28;20044;-61
2023/05/23 06:14:57;;;;;;;13.40;10.45;;;;;;;;;;8291518;28;20033;-61
2023/05/23 06:18:58;;;;;;;8.93;7.45;;;;;;;;;;8290958;28;20556;-61
2023/05/23 06:22:59;;;;;;;6.53;5.43;;;;;;;;;;8291606;28;20021;-61
2023/05/23 06:26:59;;;;;;;4.28;3.88;;;;;;;;;;8293151;28;20316;-61
2023/05/23 06:30:59;;;;;;;5.13;3.97;;;;;;;;;;8291581;28;20048;-61
2023/05/23 06:34:59;;;;;;;3.88;3.50;;;;;;;;;;8295313;28;20107;-61
2023/05/23 06:38:59;;;;;;;5.60;3.63;;;;;;;;;;8299561;28;20028;-61
2023/05/23 06:43:00;;;;;;;3.90;3.55;;;;;;;;;;8298297;28;20304;-61
2023/05/23 06:47:00;;;;;;;3.78;3.47;;;;;;;;;;8298181;28;20954;-61
2023/05/23 06:51:00;;;;;;;5.65;3.60;;;;;;;;;;8298560;28;20025;-61
2023/05/23 06:55:00;;;;;;;3.95;3.17;;;;;;;;;;8298176;28;20477;-61
2023/05/23 06:59:00;;;;;;;3.60;3.30;;;;;;;;;;8298058;28;20052;-62
2023/05/23 07:03:02;;;;;;;3.88;3.20;;;;;;;;;;8295777;28;20116;-61
2023/05/23 07:07:02;;;;;;;4.05;3.33;;;;;;;;;;8297788;28;20025;-61
2023/05/23 07:11:02;;;;;;;5.85;3.67;;;;;;;;;;8295779;28;20025;-62
2023/05/23 07:15:03;;;;;;;4.43;3.97;;;;;;;;;;8296585;28;20028;-62
2023/05/23 07:19:04;;;;;;;5.38;3.20;;;;;;;;;;8297458;28;20303;-61
2023/05/23 07:23:04;;;;;;;3.92;3.28;;;;;;;;;;8296778;28;20942;-61
2023/05/23 07:27:05;;;;;;;4.15;3.75;;;;;;;;;;8299716;28;20021;-62
2023/05/23 07:31:08;;;;;;;3.33;3.03;;;;;;;;;;8296595;28;20038;-61
2023/05/23 07:35:08;;;;;;;4.13;3.00;;;;;;;;;;8297717;28;20116;-61
2023/05/23 07:39:08;;;;;;;3.47;2.90;;;;;;;;;;8296457;28;20066;-61
2023/05/23 07:43:08;;;;;;;2.83;2.60;;;;;;;;;;8298362;28;20535;-61
2023/05/23 07:47:08;;;;;;;2.90;2.50;;;;;;;;;;8295086;28;20923;-61
2023/05/23 07:51:09;;;;;;;2.50;2.30;;;;;;;;;;8295569;28;20029;-61
2023/05/23 07:55:09;;;;;;;2.80;2.60;;;;;;;;;;8293209;28;20418;-61
2023/05/23 07:59:09;;;;;;;4.10;2.73;;;;;;;;;;8292918;28;20617;-61
2023/05/23 08:03:10;;;;;;;2.65;2.45;;;;;;;;;;8296910;28;20287;-61
2023/05/23 08:07:11;;;;;;;2.55;2.40;;;;;;;;;;8296383;28;20044;-63
2023/05/23 08:11:13;;;;;;;2.50;2.03;;;;;;;;;;8293330;28;20044;-61
2023/05/23 08:15:13;;;;;;;2.50;2.28;;;;;;;;;;8294619;28;20128;-62
2023/05/23 08:19:14;;;;;;;2.40;2.20;;;;;;;;;;8295806;28;20044;-62
2023/05/23 08:23:14;;;;;;;2.33;2.13;;;;;;;;;;8296891;28;20024;-63
2023/05/23 08:27:14;;;;;;;2.65;2.45;;;;;;;;;;8294055;28;20239;-61
2023/05/23 08:31:14;;;;;;;4.78;2.00;;;;;;;;;;8298921;28;21338;-61
2023/05/23 08:35:15;;;;;;;2.10;2.00;;;;;;;;;;8302982;28;20036;-61
2023/05/23 08:39:15;;;;;;;2.17;1.83;;;;;;;;;;8300366;28;20095;-61
2023/05/23 08:43:15;;;;;;;2.60;2.40;;;;;;;;;;8302290;28;20053;-64
2023/05/23 08:47:16;;;;;;;2.05;1.95;;;;;;;;;;8300187;28;20409;-62
2023/05/23 08:51:16;;;;;;;2.33;2.13;;;;;;;;;;8299944;28;20055;-61
2023/05/23 08:55:17;;;;;;;2.83;2.60;;;;;;;;;;8299881;28;20029;-61
2023/05/23 08:59:18;;;;;;;2.45;2.20;;;;;;;;;;8297234;28;20247;-61
2023/05/23 09:03:18;;;;;;;2.60;2.40;;;;;;;;;;8294999;28;20045;-61
2023/05/23 09:07:19;;;;;;;3.75;2.65;;;;;;;;;;8299425;28;20021;-62
2023/05/23 09:11:20;;;;;;;2.70;2.50;;;;;;;;;;8296825;28;20035;-61
2023/05/23 09:15:24;;;;;;;2.75;2.55;;;;;;;;;;8299329;28;20057;-61
2023/05/23 09:19:25;;;;;;;2.83;2.58;;;;;;;;;;8295045;28;20033;-61
2023/05/23 09:23:25;;;;;;;5.93;2.20;;;;;;;;;;8296761;28;20036;-61
2023/05/23 09:27:25;;;;;;;2.72;2.30;;;;;;;;;;8297157;28;20788;-62
2023/05/23 09:31:29;;;;;;;4.18;2.70;;;;;;;;;;8299084;28;20041;-65
2023/05/23 09:35:29;;;;;;;3.15;2.40;;;;;;;;;;8298122;28;20037;-61
2023/05/23 09:39:29;;;;;;;3.78;2.63;;;;;;;;;;8296564;28;20032;-61
2023/05/23 09:43:30;;;;;;;2.70;2.50;;;;;;;;;;8300652;28;20025;-61
2023/05/23 09:47:30;;;;;;;3.10;2.80;;;;;;;;;;8299336;28;20048;-61
2023/05/23 09:51:31;;;;;;;3.10;2.80;;;;;;;;;;8300079;28;20357;-61
2023/05/23 09:55:31;;;;;;;3.15;2.83;;;;;;;;;;8298852;28;20215;-61
2023/05/23 09:59:33;;;;;;;2.78;2.50;;;;;;;;;;8297101;28;20507;-61
2023/05/23 10:03:35;;;;;;;4.22;2.97;;;;;;;;;;8297350;28;20038;-61
2023/05/23 10:07:36;;;;;;;3.78;2.53;;;;;;;;;;8294101;28;20028;-61
2023/05/23 10:11:55;;;;;;;3.58;2.92;;;;;;;;;;8297952;28;20397;-61
2023/05/23 10:16:01;;;;;;;3.60;3.30;;;;;;;;;;8294647;28;20474;-61
2023/05/23 10:20:09;;;;;;;5.60;4.20;;;;;;;;;;8290088;28;20025;-61
2023/05/23 10:24:10;;;;;;;4.63;4.10;;;;;;;;;;8296299;28;20033;-61
2023/05/23 10:28:12;;;;;;;5.45;4.68;;;;;;;;;;8297307;28;20025;-67
2023/05/23 10:32:13;;;;;;;5.18;4.57;;;;;;;;;;8297957;28;20036;-61
2023/05/23 10:36:18;;;;;;;5.30;4.80;;;;;;;;;;8299846;28;20029;-61
2023/05/23 10:40:22;;;;;;;6.30;4.68;;;;;;;;;;8298460;28;20071;-61
2023/05/23 10:44:27;;;;;;;8.23;4.47;;;;;;;;;;8297050;28;20021;-62
2023/05/23 10:48:27;;;;;;;5.82;5.05;;;;;;;;;;8297216;28;20619;-62
2023/05/23 10:52:37;;;;;;;5.22;4.63;;;;;;;;;;8299375;28;20033;-62
2023/05/23 10:56:37;;;;;;;6.15;4.80;;;;;;;;;;8296993;28;20029;-61
2023/05/23 11:00:38;;;;;;;5.85;4.80;;;;;;;;;;8295760;28;20036;-61
2023/05/23 11:04:38;;;;;;;6.43;4.47;;;;;;;;;;8296538;28;20032;-61
2023/05/23 11:08:41;;;;;;;5.15;4.25;;;;;;;;;;8294831;28;20482;-62
2023/05/23 11:12:42;;;;;;;5.32;4.82;;;;;;;;;;8301937;28;20685;-62
2023/05/23 11:16:45;;;;;;;7.25;4.60;;;;;;;;;;8293840;28;20057;-62
2023/05/23 11:20:46;;;;;;;5.00;4.40;;;;;;;;;;8299123;28;20029;-61
2023/05/23 11:24:48;;;;;;;5.10;4.60;;;;;;;;;;8303230;28;20621;-62
2023/05/23 11:28:54;;;;;;;7.20;3.97;;;;;;;;;;8300594;28;20695;-63
2023/05/23 11:32:55;;;;;;;4.72;4.28;;;;;;;;;;8298941;28;20040;-62
2023/05/23 11:36:55;;;;;;;4.82;4.32;;;;;;;;;;8301227;28;20053;-61
2023/05/23 11:40:55;;;;;;;4.93;4.53;;;;;;;;;;8299468;28;20021;-62
2023/05/23 11:44:56;;;;;;;4.30;3.90;;;;;;;;;;8300726;28;20569;-62
2023/05/23 11:48:57;;;;;;;7.50;4.45;;;;;;;;;;8297852;28;20287;-62
2023/05/23 11:52:58;;;;;;;5.35;4.85;;;;;;;;;;8300664;28;20199;-62
2023/05/23 11:56:59;;;;;;;5.57;5.10;;;;;;;;;;8300742;28;20033;-62
2023/05/23 12:01:00;;;;;;;6.00;5.38;;;;;;;;;;8298732;28;20777;-62
2023/05/23 12:05:05;;;;;;;6.82;6.20;;;;;;;;;;8299755;28;20029;-62
2023/05/23 12:09:06;;;;;;;8.38;6.88;;;;;;;;;;8297507;28;20507;-62
2023/05/23 12:13:06;;;;;;;8.10;7.07;;;;;;;;;;8296456;28;20438;-62
2023/05/23 12:17:06;;;;;;;7.60;6.90;;;;;;;;;;8299077;28;20044;-62
2023/05/23 12:21:07;;;;;;;9.67;7.20;;;;;;;;;;8299975;28;20128;-62
2023/05/23 12:25:08;;;;;;;7.20;6.50;;;;;;;;;;8297920;28;20450;-62
2023/05/23 12:29:08;;;;;;;7.70;6.38;;;;;;;;;;8296734;28;20083;-62
2023/05/23 12:33:08;;;;;;;7.63;5.78;;;;;;;;;;8300512;28;20350;-62
2023/05/23 12:37:11;;;;;;;6.95;6.25;;;;;;;;;;8302636;28;20111;-61
2023/05/23 12:41:14;;;;;;;6.00;5.22;;;;;;;;;;8302356;28;20025;-62
2023/05/23 12:45:14;;;;;;;;;;;;;;;;;;8289924;28;20569;-62
2023/05/23 12:49:15;;;;;;;8.90;5.60;;;;;;;;;;8288586;28;19917;-63
2023/05/23 12:53:15;;;;;;;6.90;5.40;;;;;;;;;;8293024;28;20548;-62
2023/05/23 12:57:15;;;;;;;5.93;5.35;;;;;;;;;;8292504;28;20105;-62
2023/05/23 13:01:16;;;;;;;6.55;5.70;;;;;;;;;;8293815;28;20053;-62
2023/05/23 13:05:16;;;;;;;6.30;5.70;;;;;;;;;;8291175;28;20645;-62
2023/05/23 13:09:16;;;;;;;6.07;5.40;;;;;;;;;;8291466;28;20322;-62
2023/05/23 13:13:16;;;;;;;7.00;5.32;;;;;;;;;;8292556;28;20683;-62
2023/05/23 13:17:17;;;;;;;6.10;5.50;;;;;;;;;;8283298;28;20683;-63
2023/05/23 13:21:17;;;;;;;6.43;5.38;;;;;;;;;;8289790;28;20040;-62
2023/05/23 13:25:17;;;;;;;6.35;5.75;;;;;;;;;;8293507;28;20052;-62
2023/05/23 13:29:17;;;;;;;8.05;5.97;;;;;;;;;;8285848;28;20033;-61
2023/05/23 13:33:18;;;;;;;6.80;6.15;;;;;;;;;;8287772;28;20501;-61
2023/05/23 13:37:18;;;;;;;7.15;6.15;;;;;;;;;;8291793;28;20088;-61
2023/05/23 13:41:18;;;;;;;7.05;5.90;;;;;;;;;;8281901;28;20044;-62
2023/05/23 13:45:21;;;;;;;7.40;5.90;;;;;;;;;;8285446;28;20425;-62
2023/05/23 13:49:21;;;;;;;9.45;6.43;;;;;;;;;;8295788;28;20638;-61
2023/05/23 13:53:21;;;;;;;7.03;6.32;;;;;;;;;;8281805;28;20487;-61
2023/05/23 13:57:22;;;;;;;7.53;6.20;;;;;;;;;;8290226;28;20021;-62
2023/05/23 14:01:23;;;;;;;9.43;6.53;;;;;;;;;;8285603;28;20430;-61
2023/05/23 14:05:23;;;;;;;8.55;6.20;;;;;;;;;;8289104;28;20021;-61
2023/05/23 14:09:23;;;;;;;8.15;6.25;;;;;;;;;;8282553;28;20137;-61
2023/05/23 14:13:23;;;;;;;9.00;6.23;;;;;;;;;;8290801;28;20299;-61
2023/05/23 14:17:24;;;;;;;9.57;5.50;;;;;;;;;;8284342;28;20045;-61
2023/05/23 14:21:24;;;;;;;6.55;5.45;;;;;;;;;;8289739;28;20053;-61
2023/05/23 14:25:24;;;;;;;6.95;5.85;;;;;;;;;;8288849;28;20045;-61
2023/05/23 14:29:25;;;;;;;8.80;5.60;;;;;;;;;;8284814;28;20076;-61
2023/05/23 14:33:25;;;;;;;9.38;5.93;;;;;;;;;;8287956;28;20087;-61
2023/05/23 14:37:25;;;;;;;7.20;5.95;;;;;;;;;;8290006;28;20025;-61
2023/05/23 14:41:26;;;;;;;7.18;6.47;;;;;;;;;;8290827;28;20032;-61
2023/05/23 14:45:26;;;;;;;9.88;6.22;;;;;;;;;;8297637;28;20038;-61
2023/05/23 14:49:27;;;;;;;7.80;6.30;;;;;;;;;;8288414;28;20596;-61
2023/05/23 14:53:27;;;;;;;6.55;5.82;;;;;;;;;;8295677;28;20031;-61
2023/05/23 14:57:27;;;;;;;9.30;6.57;;;;;;;;;;8302750;28;20129;-62
2023/05/23 15:01:27;;;;;;;8.75;6.80;;;;;;;;;;8303968;28;20434;-63
2023/05/23 15:05:27;;;;;;;8.53;7.63;;;;;;;;;;8304445;28;20522;-61
2023/05/23 15:09:28;;;;;;;9.50;7.90;;;;;;;;;;8300471;28;20126;-61
2023/05/23 15:13:28;;;;;;;11.23;8.45;;;;;;;;;;8305479;28;20478;-61
2023/05/23 15:17:32;;;;;;;11.38;9.30;;;;;;;;;;8302164;28;20220;-61
2023/05/23 15:21:32;;;;;;;12.68;8.50;;;;;;;;;;8301370;28;20022;-61
2023/05/23 15:25:32;;;;;;;10.82;8.32;;;;;;;;;;8306972;28;20031;-61
2023/05/23 15:29:34;;;;;;;11.77;9.57;;;;;;;;;;8302561;28;20481;-61
2023/05/23 15:33:34;;;;;;;12.00;9.15;;;;;;;;;;8303458;28;20508;-62
2023/05/23 15:37:34;;;;;;;11.38;9.40;;;;;;;;;;8293781;28;20060;-62
2023/05/23 15:41:35;;;;;;;11.55;9.40;;;;;;;;;;8300870;28;20025;-62
2023/05/23 15:45:35;;;;;;;12.48;9.27;;;;;;;;;;8301419;28;20033;-62
2023/05/23 15:49:35;;;;;;;11.97;8.47;;;;;;;;;;8303637;28;20025;-62
2023/05/23 15:53:35;;;;;;;11.30;9.23;;;;;;;;;;8302118;28;20615;-61
2023/05/23 15:57:35;;;;;;;10.18;8.45;;;;;;;;;;8300297;28;20488;-61
2023/05/23 16:01:36;;;;;;;9.00;7.80;;;;;;;;;;8299774;28;20103;-61
2023/05/23 16:05:36;;;;;;;9.68;7.10;;;;;;;;;;8301210;28;20032;-61
2023/05/23 16:09:36;;;;;;;8.77;7.50;;;;;;;;;;8302774;28;20025;-61
2023/05/23 16:13:36;;;;;;;9.20;7.50;;;;;;;;;;8301548;28;20120;-61
2023/05/23 16:17:37;;;;;;;7.85;6.85;;;;;;;;;;8300863;28;20038;-62
2023/05/23 16:21:37;;;;;;;11.30;7.60;;;;;;;;;;8304488;28;20023;-62
2023/05/23 16:25:37;;;;;;;10.77;8.10;;;;;;;;;;8302781;28;20299;-63
2023/05/23 16:29:37;;;;;;;13.10;8.07;;;;;;;;;;8303266;28;20021;-61
2023/05/23 16:33:37;;;;;;;12.05;8.57;;;;;;;;;;8300752;28;20053;-61
2023/05/23 16:37:38;;;;;;;11.98;7.78;;;;;;;;;;8300840;28;20040;-61
2023/05/23 16:41:38;;;;;;;10.15;7.47;;;;;;;;;;8301734;28;20021;-61
2023/05/23 16:45:38;;;;;;;11.05;7.45;;;;;;;;;;8301000;28;20468;-61
2023/05/23 16:49:38;;;;;;;9.70;7.10;;;;;;;;;;8301213;28;20025;-62
2023/05/23 16:53:39;;;;;;;11.40;8.35;;;;;;;;;;8302788;28;20036;-61
2023/05/23 16:57:39;;;;;;;14.63;7.72;;;;;;;;;;8299499;28;20017;-61
2023/05/23 17:01:40;;;;;;;11.93;7.97;;;;;;;;;;8300328;28;20033;-61
2023/05/23 17:05:40;;;;;;;8.90;7.05;;;;;;;;;;8302249;28;20134;-61
2023/05/23 17:09:40;;;;;;;12.60;7.97;;;;;;;;;;8302799;28;20061;-61
2023/05/23 17:13:41;;;;;;;9.77;7.18;;;;;;;;;;8302083;28;20029;-61
2023/05/23 17:17:41;;;;;;;8.85;6.82;;;;;;;;;;8301505;28;20073;-61
2023/05/23 17:21:41;;;;;;;10.98;6.50;;;;;;;;;;8299629;28;20095;-60
2023/05/23 17:25:41;;;;;;;11.27;6.38;;;;;;;;;;8299802;28;20117;-61
2023/05/23 17:29:41;;;;;;;8.03;6.50;;;;;;;;;;8297963;28;20024;-61
2023/05/23 17:33:42;;;;;;;13.98;6.20;;;;;;;;;;8298486;28;21021;-61
2023/05/23 17:37:43;;;;;;;7.57;5.35;;;;;;;;;;8301189;28;20099;-61
2023/05/23 17:41:43;;;;;;;7.90;5.65;;;;;;;;;;8301033;28;20045;-60
2023/05/23 17:45:44;;;;;;;7.32;5.65;;;;;;;;;;8299182;28;20065;-61
2023/05/23 17:49:44;;;;;;;6.65;5.10;;;;;;;;;;8297878;28;20021;-60
2023/05/23 17:53:45;;;;;;;7.27;5.57;;;;;;;;;;8299291;28;20461;-61
2023/05/23 17:57:45;;;;;;;6.55;5.50;;;;;;;;;;8298705;28;20027;-61
2023/05/23 18:01:45;;;;;;;6.05;4.97;;;;;;;;;;8300171;28;20041;-60
2023/05/23 18:05:45;;;;;;;7.25;5.13;;;;;;;;;;8294805;28;20559;-60
2023/05/23 18:09:47;;;;;;;8.00;6.07;;;;;;;;;;8289437;28;20079;-61
2023/05/23 18:13:47;;;;;;;6.72;5.57;;;;;;;;;;8294164;28;20075;-61
2023/05/23 18:17:50;;;;;;;8.52;6.03;;;;;;;;;;8283673;28;20563;-61
2023/05/23 18:21:50;;;;;;;9.43;6.07;;;;;;;;;;8282313;28;20378;-60
2023/05/23 18:25:51;;;;;;;11.53;6.20;;;;;;;;;;8287933;28;20021;-61
2023/05/23 18:29:51;;;;;;;6.55;5.95;;;;;;;;;;8289908;28;20049;-60
2023/05/23 18:33:51;;;;;;;8.10;5.85;;;;;;;;;;8303082;28;20171;-61
2023/05/23 18:37:52;;;;;;;10.68;6.20;;;;;;;;;;8300272;28;20763;-61
2023/05/23 18:41:52;;;;;;;7.07;6.18;;;;;;;;;;8304373;28;20970;-60
2023/05/23 18:45:52;;;;;;;8.10;6.03;;;;;;;;;;8300255;28;20032;-61
2023/05/23 18:49:53;;;;;;;7.67;6.60;;;;;;;;;;8301946;28;20091;-61
2023/05/23 18:53:53;;;;;;;9.35;5.93;;;;;;;;;;8294891;28;20441;-60
2023/05/23 18:57:53;;;;;;;9.25;6.47;;;;;;;;;;8291837;28;20411;-60
2023/05/23 19:01:53;;;;;;;9.32;6.13;;;;;;;;;;8291490;28;20037;-61
2023/05/23 19:05:58;;;;;;;7.13;5.60;;;;;;;;;;8292484;28;20025;-61
2023/05/23 19:09:58;;;;;;;6.88;5.53;;;;;;;;;;8299268;28;20836;-61
2023/05/23 19:13:58;;;;;;;7.43;5.95;;;;;;;;;;8293641;28;20670;-62
2023/05/23 19:17:59;;;;;;;8.35;5.38;;;;;;;;;;8295761;28;20048;-60
2023/05/23 19:22:00;;;;;;;7.97;5.13;;;;;;;;;;8304305;28;20017;-61
2023/05/23 19:26:00;;;;;;;6.75;5.05;;;;;;;;;;8300243;28;20107;-61
2023/05/23 19:30:01;;;;;;;5.47;4.97;;;;;;;;;;8301058;28;20103;-61
2023/05/23 19:34:01;;;;;;;8.30;5.72;;;;;;;;;;8302165;28;20048;-60
2023/05/23 19:38:01;;;;;;;9.63;6.32;;;;;;;;;;8297301;28;20588;-60
2023/05/23 19:42:01;;;;;;;9.38;6.60;;;;;;;;;;8294308;28;20013;-61
2023/05/23 19:46:01;;;;;;;11.13;6.70;;;;;;;;;;8295826;28;20106;-61
2023/05/23 19:50:02;;;;;;;9.25;6.72;;;;;;;;;;8303027;28;20504;-61
2023/05/23 19:54:02;;;;;;;8.80;6.38;;;;;;;;;;8301220;28;20129;-60
2023/05/23 19:58:02;;;;;;;9.77;6.70;;;;;;;;;;8294323;28;20355;-60
2023/05/23 20:02:02;;;;;;;12.27;6.75;;;;;;;;;;8284676;28;20037;-60
2023/05/23 20:06:03;;;;;;;9.38;6.45;;;;;;;;;;8295639;28;20031;-61
2023/05/23 20:10:03;;;;;;;7.60;6.03;;;;;;;;;;8293623;28;20167;-61
2023/05/23 20:14:03;;;;;;;10.95;6.70;;;;;;;;;;8300102;28;20419;-61
2023/05/23 20:18:04;;;;;;;10.55;6.97;;;;;;;;;;8298984;28;20052;-60
2023/05/23 20:22:04;;;;;;;9.30;6.70;;;;;;;;;;8301342;28;20856;-60
2023/05/23 20:26:05;;;;;;;7.10;6.18;;;;;;;;;;8301292;28;20035;-61
2023/05/23 20:30:05;;;;;;;9.97;6.27;;;;;;;;;;8299003;28;20032;-61
2023/05/23 20:34:06;;;;;;;9.68;6.70;;;;;;;;;;8300920;28;20032;-61
2023/05/23 20:38:06;;;;;;;9.82;6.53;;;;;;;;;;8302870;28;20768;-61
2023/05/23 20:42:09;;;;;;;9.80;6.35;;;;;;;;;;8301781;28;20064;-61
2023/05/23 20:46:09;;;;;;;9.77;6.25;;;;;;;;;;8299361;28;20044;-60
2023/05/23 20:50:11;;;;;;;6.65;5.95;;;;;;;;;;8296394;28;20283;-61
2023/05/23 20:54:11;;;;;;;9.90;6.25;;;;;;;;;;8293350;28;20040;-61
2023/05/23 20:58:11;;;;;;;7.50;6.03;;;;;;;;;;8298410;28;20029;-60
2023/05/23 21:02:13;;;;;;;10.38;6.93;;;;;;;;;;8299559;28;20310;-60
2023/05/23 21:06:15;;;;;;;7.90;5.85;;;;;;;;;;8298512;28;20055;-60
2023/05/23 21:10:15;;;;;;;10.27;6.97;;;;;;;;;;8298920;28;20063;-61
2023/05/23 21:14:15;;;;;;;10.98;6.68;;;;;;;;;;8298509;28;20686;-60
2023/05/23 21:18:15;;;;;;;13.13;6.65;;;;;;;;;;8300875;28;20466;-61
2023/05/23 21:22:15;;;;;;;8.95;7.00;;;;;;;;;;8299171;28;20021;-60
2023/05/23 21:26:16;;;;;;;8.35;6.75;;;;;;;;;;8300509;28;20816;-61
2023/05/23 21:30:16;;;;;;;9.43;6.53;;;;;;;;;;8298557;28;20037;-61
2023/05/23 21:34:16;;;;;;;11.07;6.97;;;;;;;;;;8301027;28;20033;-60
2023/05/23 21:38:17;;;;;;;8.07;6.38;;;;;;;;;;8299184;28;20031;-61
2023/05/23 21:42:17;;;;;;;8.93;7.07;;;;;;;;;;8301316;28;20036;-60
2023/05/23 21:46:17;;;;;;;8.27;6.28;;;;;;;;;;8300083;28;20044;-60
2023/05/23 21:50:18;;;;;;;9.63;6.30;;;;;;;;;;8298529;28;21110;-61
2023/05/23 21:54:18;;;;;;;9.35;6.25;;;;;;;;;;8294482;28;20106;-60
2023/05/23 21:58:18;;;;;;;7.82;5.72;;;;;;;;;;8294241;28;20045;-60
2023/05/23 22:02:18;;;;;;;7.63;5.55;;;;;;;;;;8294040;28;20120;-60
2023/05/23 22:06:18;;;;;;;9.30;5.00;;;;;;;;;;8294333;28;20025;-60
2023/05/23 22:10:18;;;;;;;10.18;5.60;;;;;;;;;;8298877;28;20356;-60
2023/05/23 22:14:19;;;;;;;6.82;5.05;;;;;;;;;;8298181;28;20033;-60
2023/05/23 22:18:20;;;;;;;9.30;5.47;;;;;;;;;;8297425;28;20041;-60
2023/05/23 22:22:21;;;;;;;7.63;5.18;;;;;;;;;;8298243;28;20255;-60
2023/05/23 22:26:22;;;;;;;8.80;5.10;;;;;;;;;;8299579;28;20039;-60
2023/05/23 22:30:22;;;;;;;9.45;5.30;;;;;;;;;;8297866;28;21061;-60
2023/05/23 22:34:22;;;;;;;6.67;5.10;;;;;;;;;;8297704;28;20041;-60
2023/05/23 22:38:22;;;;;;;6.93;4.43;;;;;;;;;;8297022;28;20065;-61
2023/05/23 22:42:22;;;;;;;9.55;4.97;;;;;;;;;;8300675;28;20080;-60
2023/05/23 22:46:23;;;;;;;6.37;4.73;;;;;;;;;;8299473;28;20047;-61
2023/05/23 22:50:25;;;;;;;5.85;4.53;;;;;;;;;;8298522;28;20037;-61
2023/05/23 22:54:25;;;;;;;7.80;4.90;;;;;;;;;;8297453;28;20021;-60
2023/05/23 22:58:26;;;;;;;6.18;4.95;;;;;;;;;;8297642;28;20037;-60
2023/05/23 23:02:26;;;;;;;7.73;4.60;;;;;;;;;;8297822;28;20051;-60
2023/05/23 23:06:28;;;;;;;7.68;5.00;;;;;;;;;;8299743;28;20766;-60
2023/05/23 23:10:28;;;;;;;9.80;5.10;;;;;;;;;;8297541;28;20531;-60
2023/05/23 23:14:28;;;;;;;7.00;4.57;;;;;;;;;;8297026;28;20120;-61
2023/05/23 23:18:28;;;;;;;8.30;4.53;;;;;;;;;;8304786;28;20058;-61
2023/05/23 23:22:28;;;;;;;11.57;4.83;;;;;;;;;;8304237;28;20029;-60
2023/05/23 23:26:29;;;;;;;6.40;4.00;;;;;;;;;;8304308;28;20333;-60
2023/05/23 23:30:29;;;;;;;7.28;4.28;;;;;;;;;;8301911;28;20068;-60
2023/05/23 23:34:29;;;;;;;7.05;4.68;;;;;;;;;;8303457;28;20855;-60
2023/05/23 23:38:29;;;;;;;5.60;4.15;;;;;;;;;;8303658;28;20029;-60
2023/05/23 23:42:30;;;;;;;6.57;4.28;;;;;;;;;;8303680;28;20482;-60
2023/05/23 23:46:30;;;;;;;8.88;4.15;;;;;;;;;;8303222;28;20989;-61
2023/05/23 23:50:30;;;;;;;7.25;3.95;;;;;;;;;;8305015;28;20078;-60